Marie, Mississippi
Current Conditions -  °F | °C
As of 7:53 PM on Sunday 21 Dec 2014 (Local Time) from KGLH Reporting Station
Clear Clear  
Wind Chill: 44°   Ceiling: Unl
Heat Index: 47°   Visibility: 10mi
Dew Point: 41°   Wind: 6mph
Humidity: 80%   Direction: 100°E
Pressure: 29.94"   Gusts: NA
Location:  33.4825°N, 90.6856°W
Report Text: KGLH 220153Z AUTO 10005KT 10SM CLR 08/05 A2994 RMK AO2 SLP148 T00830050
Loading
Personal Weather Stations






























Interactive Weather Map New forecast layout! Learn more

10-Day Weather Forecast

Advertisements
Track Severe Weather on mobile